Time;durP1;ratioP1;P1;durP2;ratioP2;P2;SDS_P1;SDS_P2;PMS_P1;PMS_P2;Temp;Humidity;BMP_temperature;BMP_pressure;BME280_temperature;BME280_humidity;BME280_pressure;Samples;Min_cycle;Max_cycle;Signal;HPM_P1;HPM_P2
2022/01/20 00:02:02;;;;;;;25.47;3.17;;;;;;;;;;5038900;28;20272;-70
2022/01/20 00:04:52;;;;;;;16.83;2.47;;;;;;;;;;5045151;28;20605;-69
2022/01/20 00:07:44;;;;;;;17.40;2.63;;;;;;;;;;5041898;28;20241;-69
2022/01/20 00:26:28;;;;;;;18.97;2.47;;;;;;;;;;5046052;28;20192;-69
2022/01/20 00:28:58;;;;;;;21.80;2.97;;;;;;;;;;5045774;28;20260;-69
2022/01/20 00:31:40;;;;;;;16.53;2.10;;;;;;;;;;5045404;28;20205;-69
2022/01/20 00:34:30;;;;;;;20.60;2.37;;;;;;;;;;5046082;28;20177;-69
2022/01/20 00:37:16;;;;;;;24.03;2.97;;;;;;;;;;5044086;28;20190;-68
2022/01/20 00:39:41;;;;;;;20.60;2.57;;;;;;;;;;5039940;28;20189;-69
2022/01/20 00:42:08;;;;;;;21.23;2.50;;;;;;;;;;5041414;28;20169;-70
2022/01/20 00:44:34;;;;;;;15.63;2.30;;;;;;;;;;5044114;28;20267;-70
2022/01/20 00:46:59;;;;;;;18.57;1.80;;;;;;;;;;5044423;28;20193;-70
2022/01/20 00:49:24;;;;;;;23.10;2.73;;;;;;;;;;5045671;28;20188;-72
2022/01/20 00:51:50;;;;;;;16.83;2.37;;;;;;;;;;5045476;28;20232;-70
2022/01/20 00:54:15;;;;;;;21.90;2.27;;;;;;;;;;5039518;28;20486;-70
2022/01/20 00:56:40;;;;;;;23.70;2.63;;;;;;;;;;5046011;28;20223;-71
2022/01/20 00:59:06;;;;;;;21.50;2.50;;;;;;;;;;5044680;28;20181;-73
2022/01/20 01:01:31;;;;;;;14.57;1.87;;;;;;;;;;5044401;28;20244;-72
2022/01/20 01:03:56;;;;;;;24.33;3.47;;;;;;;;;;5045920;28;20645;-71
2022/01/20 01:06:37;;;;;;;23.90;3.07;;;;;;;;;;5045143;28;20221;-71
2022/01/20 01:09:05;;;;;;;14.97;2.20;;;;;;;;;;5042368;28;20575;-71
2022/01/20 01:11:31;;;;;;;24.13;2.40;;;;;;;;;;5042448;28;20185;-70
2022/01/20 01:13:57;;;;;;;17.07;2.30;;;;;;;;;;5034600;28;20534;-70
2022/01/20 01:16:34;;;;;;;21.67;2.33;;;;;;;;;;5043349;28;20202;-71
2022/01/20 01:21:45;;;;;;;18.73;2.20;;;;;;;;;;5039643;28;20240;-70
2022/01/20 01:24:11;;;;;;;25.07;2.20;;;;;;;;;;5042932;28;20301;-70
2022/01/20 01:26:37;;;;;;;18.53;2.87;;;;;;;;;;5043664;28;20256;-70
2022/01/20 01:29:13;;;;;;;23.03;2.80;;;;;;;;;;5034428;28;20402;-71
2022/01/20 01:31:40;;;;;;;17.87;2.63;;;;;;;;;;5043583;28;20232;-71
2022/01/20 01:34:12;;;;;;;24.90;3.33;;;;;;;;;;5042953;28;20598;-70
2022/01/20 01:37:04;;;;;;;22.30;2.77;;;;;;;;;;5041358;28;20621;-70
2022/01/20 01:39:29;;;;;;;24.83;2.60;;;;;;;;;;5043306;28;20188;-70
2022/01/20 01:41:56;;;;;;;21.60;2.83;;;;;;;;;;5044432;28;20196;-71
2022/01/20 01:44:26;;;;;;;22.30;2.87;;;;;;;;;;5038727;28;20206;-70
2022/01/20 01:46:52;;;;;;;23.53;2.30;;;;;;;;;;5043039;28;20197;-71
2022/01/20 01:49:18;;;;;;;19.63;1.93;;;;;;;;;;5043560;28;20708;-72
2022/01/20 01:51:44;;;;;;;23.63;2.53;;;;;;;;;;5044890;28;20182;-70
2022/01/20 01:54:12;;;;;;;17.73;2.27;;;;;;;;;;5043358;28;20216;-70
2022/01/20 01:56:37;;;;;;;19.73;2.10;;;;;;;;;;5044573;28;20185;-70
2022/01/20 01:59:04;;;;;;;16.30;2.43;;;;;;;;;;5040923;28;20535;-71
2022/01/20 02:01:33;;;;;;;15.07;2.20;;;;;;;;;;5047757;28;20501;-71
2022/01/20 02:04:08;;;;;;;20.73;2.83;;;;;;;;;;5042821;28;20247;-71
2022/01/20 02:19:54;;;;;;;11.47;1.57;;;;;;;;;;5043480;28;20208;-73
2022/01/20 02:22:19;;;;;;;20.47;1.70;;;;;;;;;;5046021;28;20186;-73
2022/01/20 02:24:45;;;;;;;16.77;2.47;;;;;;;;;;5049054;28;20192;-73
2022/01/20 02:27:10;;;;;;;10.00;1.53;;;;;;;;;;5046132;28;20193;-72
2022/01/20 02:29:35;;;;;;;11.87;1.47;;;;;;;;;;5045841;28;20273;-72
2022/01/20 02:32:01;;;;;;;14.40;2.20;;;;;;;;;;5050454;28;20254;-72
2022/01/20 02:34:31;;;;;;;19.50;1.97;;;;;;;;;;5042553;28;20231;-71
2022/01/20 02:36:59;;;;;;;19.17;2.17;;;;;;;;;;5043742;28;20275;-71
2022/01/20 02:47:14;;;;;;;19.67;2.07;;;;;;;;;;5045173;28;20178;-70
2022/01/20 02:49:40;;;;;;;16.37;1.70;;;;;;;;;;5048509;28;20186;-70
2022/01/20 02:52:06;;;;;;;14.93;1.87;;;;;;;;;;5043465;28;20256;-70
2022/01/20 02:54:31;;;;;;;15.70;1.87;;;;;;;;;;5046828;28;20215;-70
2022/01/20 02:56:56;;;;;;;21.60;2.43;;;;;;;;;;5044067;28;20632;-70
2022/01/20 02:59:22;;;;;;;17.23;1.80;;;;;;;;;;5046377;28;20209;-70
2022/01/20 03:01:47;;;;;;;20.03;2.93;;;;;;;;;;5042345;28;20255;-70
2022/01/20 03:04:13;;;;;;;17.87;2.07;;;;;;;;;;5044756;28;20202;-71
2022/01/20 03:06:38;;;;;;;14.27;1.80;;;;;;;;;;5044642;28;20656;-71
2022/01/20 03:09:04;;;;;;;12.40;1.70;;;;;;;;;;5044208;28;20558;-73
2022/01/20 03:11:30;;;;;;;13.77;1.40;;;;;;;;;;5045679;28;20197;-70
2022/01/20 03:13:55;;;;;;;18.00;1.70;;;;;;;;;;5042493;28;20174;-71
2022/01/20 03:16:20;;;;;;;12.60;2.07;;;;;;;;;;5045344;28;20223;-71
2022/01/20 03:18:46;;;;;;;11.23;1.47;;;;;;;;;;5047815;28;20649;-71
2022/01/20 03:21:11;;;;;;;16.13;1.70;;;;;;;;;;5044248;28;20189;-71
2022/01/20 03:23:37;;;;;;;12.30;1.80;;;;;;;;;;5047443;28;20270;-71
2022/01/20 03:26:02;;;;;;;14.00;1.50;;;;;;;;;;5046279;28;20724;-71
2022/01/20 03:28:28;;;;;;;17.93;1.50;;;;;;;;;;5045986;28;20194;-71
2022/01/20 03:30:53;;;;;;;7.93;1.30;;;;;;;;;;5045585;28;20209;-71
2022/01/20 03:33:18;;;;;;;19.10;2.03;;;;;;;;;;5047053;28;20524;-72
2022/01/20 03:35:44;;;;;;;13.27;1.37;;;;;;;;;;5047432;28;20415;-71
2022/01/20 03:38:10;;;;;;;9.47;1.93;;;;;;;;;;5045481;28;20181;-71
2022/01/20 03:40:35;;;;;;;10.53;1.30;;;;;;;;;;5046854;28;20178;-71
2022/01/20 03:43:01;;;;;;;12.20;1.70;;;;;;;;;;5043764;28;20355;-70
2022/01/20 03:45:27;;;;;;;12.47;1.33;;;;;;;;;;5045299;28;20193;-70
2022/01/20 03:47:58;;;;;;;12.47;1.13;;;;;;;;;;5045415;28;20631;-70
2022/01/20 03:53:08;;;;;;;9.07;0.93;;;;;;;;;;5042439;28;20192;-71
2022/01/20 03:55:33;;;;;;;1.73;0.57;;;;;;;;;;5044230;28;20561;-71
2022/01/20 03:57:59;;;;;;;8.43;0.90;;;;;;;;;;5034391;28;20232;-71
2022/01/20 04:00:24;;;;;;;6.03;0.60;;;;;;;;;;5043511;28;20177;-71
2022/01/20 04:02:49;;;;;;;3.17;0.50;;;;;;;;;;5045786;28;20691;-70
2022/01/20 04:05:15;;;;;;;5.53;0.93;;;;;;;;;;5044776;28;20206;-70
2022/01/20 04:07:40;;;;;;;12.53;0.87;;;;;;;;;;5047208;28;20271;-71
2022/01/20 04:10:06;;;;;;;6.50;0.90;;;;;;;;;;5044177;28;20194;-73
2022/01/20 04:12:32;;;;;;;8.00;0.70;;;;;;;;;;5046856;28;20181;-72
2022/01/20 04:15:00;;;;;;;8.93;1.10;;;;;;;;;;5045850;28;20563;-72
2022/01/20 04:17:27;;;;;;;11.20;1.17;;;;;;;;;;5038838;28;20430;-72
2022/01/20 04:19:53;;;;;;;13.77;1.30;;;;;;;;;;5039345;28;20194;-72
2022/01/20 04:22:18;;;;;;;10.97;0.93;;;;;;;;;;5043125;28;20251;-71
2022/01/20 04:24:43;;;;;;;6.90;1.40;;;;;;;;;;5043507;28;20200;-72
2022/01/20 04:27:08;;;;;;;14.47;1.27;;;;;;;;;;5038722;28;20194;-71
2022/01/20 04:29:34;;;;;;;9.00;1.50;;;;;;;;;;5045332;28;20576;-71
2022/01/20 04:32:00;;;;;;;11.87;2.10;;;;;;;;;;5043176;28;20246;-70
2022/01/20 04:34:25;;;;;;;18.57;1.67;;;;;;;;;;5046279;28;20603;-70
2022/01/20 04:36:54;;;;;;;13.53;1.57;;;;;;;;;;5040204;28;20252;-70
2022/01/20 04:39:23;;;;;;;12.40;1.90;;;;;;;;;;5041591;28;20266;-70
2022/01/20 04:41:50;;;;;;;9.90;1.63;;;;;;;;;;5040189;28;20185;-70
2022/01/20 04:44:30;;;;;;;17.33;2.20;;;;;;;;;;5041438;28;20689;-70
2022/01/20 04:47:05;;;;;;;14.23;2.23;;;;;;;;;;5040973;28;20230;-70
2022/01/20 04:57:27;;;;;;;13.97;1.97;;;;;;;;;;5041254;28;20189;-70
2022/01/20 04:59:54;;;;;;;11.63;2.03;;;;;;;;;;5043667;28;20186;-70
2022/01/20 05:02:20;;;;;;;25.63;2.53;;;;;;;;;;5044948;28;20555;-71
2022/01/20 05:04:45;;;;;;;19.63;2.03;;;;;;;;;;5041807;28;20240;-70
2022/01/20 05:07:19;;;;;;;20.77;2.27;;;;;;;;;;5045386;28;20237;-70
2022/01/20 05:09:44;;;;;;;14.10;2.03;;;;;;;;;;5043835;28;20220;-71
2022/01/20 05:12:13;;;;;;;14.27;2.30;;;;;;;;;;5045410;28;20209;-69
2022/01/20 05:14:39;;;;;;;17.00;2.20;;;;;;;;;;5040114;28;20188;-70
2022/01/20 05:17:04;;;;;;;16.17;1.90;;;;;;;;;;5046123;28;20173;-70
2022/01/20 05:19:31;;;;;;;17.33;2.40;;;;;;;;;;5043974;28;20552;-69
2022/01/20 05:21:57;;;;;;;16.90;2.33;;;;;;;;;;5047315;28;20177;-69
2022/01/20 05:24:23;;;;;;;12.13;2.27;;;;;;;;;;5042801;28;20695;-70
2022/01/20 05:26:50;;;;;;;12.80;1.87;;;;;;;;;;5042919;28;20173;-70
2022/01/20 05:29:19;;;;;;;14.67;2.50;;;;;;;;;;5046041;28;20185;-70
2022/01/20 05:31:45;;;;;;;17.70;2.07;;;;;;;;;;5042649;28;20794;-70
2022/01/20 05:34:10;;;;;;;17.10;2.50;;;;;;;;;;5045561;28;20189;-69
2022/01/20 05:36:36;;;;;;;16.83;2.43;;;;;;;;;;5045910;28;20173;-69
2022/01/20 05:39:02;;;;;;;17.10;2.17;;;;;;;;;;5047683;28;20287;-70
2022/01/20 05:41:28;;;;;;;20.10;2.90;;;;;;;;;;5048110;28;20433;-69
2022/01/20 05:43:53;;;;;;;18.37;2.53;;;;;;;;;;5044015;28;20228;-69
2022/01/20 05:46:23;;;;;;;19.57;2.47;;;;;;;;;;5047647;28;20189;-70
2022/01/20 05:48:49;;;;;;;16.93;2.40;;;;;;;;;;5046936;28;20657;-70
2022/01/20 05:51:14;;;;;;;18.33;2.53;;;;;;;;;;5047213;28;20198;-70
2022/01/20 05:53:40;;;;;;;22.37;2.53;;;;;;;;;;5048627;28;20259;-70
2022/01/20 05:56:07;;;;;;;19.67;2.30;;;;;;;;;;5045992;28;20648;-69
2022/01/20 05:58:36;;;;;;;27.77;2.70;;;;;;;;;;5046696;28;20277;-69
2022/01/20 06:01:04;;;;;;;19.30;2.10;;;;;;;;;;5044021;28;20181;-70
2022/01/20 06:03:36;;;;;;;11.43;2.37;;;;;;;;;;5047800;28;20201;-69
2022/01/20 06:06:05;;;;;;;14.60;1.60;;;;;;;;;;5048383;28;20195;-69
2022/01/20 06:08:31;;;;;;;12.63;1.37;;;;;;;;;;5044206;28;20246;-70
2022/01/20 06:10:57;;;;;;;14.53;1.83;;;;;;;;;;5049949;28;20189;-70
2022/01/20 06:13:23;;;;;;;11.00;1.40;;;;;;;;;;5044842;28;20239;-69
2022/01/20 06:15:49;;;;;;;15.30;1.80;;;;;;;;;;5047587;28;20578;-69
2022/01/20 06:18:15;;;;;;;14.07;1.57;;;;;;;;;;5046707;28;20196;-68
2022/01/20 06:20:40;;;;;;;8.40;1.37;;;;;;;;;;5045807;28;20181;-69
2022/01/20 06:23:07;;;;;;;12.07;2.07;;;;;;;;;;5046076;28;20201;-70
2022/01/20 06:25:33;;;;;;;13.13;1.40;;;;;;;;;;5042361;28;20186;-70
2022/01/20 06:27:59;;;;;;;11.43;1.43;;;;;;;;;;5044355;28;20316;-70
2022/01/20 06:30:25;;;;;;;8.13;1.03;;;;;;;;;;5044850;28;20232;-70
2022/01/20 06:32:51;;;;;;;10.53;1.10;;;;;;;;;;5047105;28;20837;-69
2022/01/20 06:35:17;;;;;;;4.97;1.20;;;;;;;;;;5041211;28;20185;-68
2022/01/20 06:37:42;;;;;;;12.67;1.30;;;;;;;;;;5044654;28;20224;-68
2022/01/20 06:40:10;;;;;;;9.23;1.37;;;;;;;;;;5046405;28;20632;-69
2022/01/20 06:42:35;;;;;;;9.60;1.50;;;;;;;;;;5045938;28;20297;-69
2022/01/20 06:45:05;;;;;;;9.30;1.10;;;;;;;;;;5044179;28;20273;-69
2022/01/20 06:47:30;;;;;;;8.80;1.13;;;;;;;;;;5049759;28;20842;-69
2022/01/20 06:49:56;;;;;;;6.53;0.87;;;;;;;;;;5040483;28;20182;-69
2022/01/20 06:52:21;;;;;;;11.93;1.47;;;;;;;;;;5044659;28;20220;-69
2022/01/20 06:54:46;;;;;;;7.63;1.70;;;;;;;;;;5046139;28;20493;-69
2022/01/20 06:57:12;;;;;;;15.83;1.93;;;;;;;;;;5047889;28;20244;-69
2022/01/20 06:59:37;;;;;;;14.00;1.97;;;;;;;;;;5043641;28;20209;-69
2022/01/20 07:02:03;;;;;;;15.80;2.07;;;;;;;;;;5040150;28;20193;-69
2022/01/20 07:04:28;;;;;;;12.17;1.97;;;;;;;;;;5037098;28;20677;-70
2022/01/20 07:06:54;;;;;;;15.60;1.80;;;;;;;;;;5036167;28;20201;-69
2022/01/20 07:09:20;;;;;;;16.63;1.90;;;;;;;;;;5031664;28;20194;-69
2022/01/20 07:11:45;;;;;;;12.37;1.90;;;;;;;;;;5034159;28;20884;-69
2022/01/20 07:14:11;;;;;;;14.57;2.00;;;;;;;;;;5027537;28;20185;-69
2022/01/20 07:16:36;;;;;;;16.20;1.87;;;;;;;;;;5041108;28;20326;-69
2022/01/20 07:19:03;;;;;;;19.00;2.03;;;;;;;;;;5045326;28;20193;-69
2022/01/20 07:21:28;;;;;;;10.93;1.27;;;;;;;;;;5040465;28;20773;-69
2022/01/20 07:23:54;;;;;;;15.17;1.83;;;;;;;;;;5034963;28;20302;-69
2022/01/20 07:26:20;;;;;;;10.53;1.70;;;;;;;;;;5044568;28;20532;-69
2022/01/20 07:28:45;;;;;;;15.27;1.60;;;;;;;;;;5046850;28;20201;-69
2022/01/20 07:31:11;;;;;;;17.03;1.97;;;;;;;;;;5037296;28;20263;-69
2022/01/20 07:33:37;;;;;;;11.53;1.97;;;;;;;;;;5047914;28;20189;-69
2022/01/20 07:36:03;;;;;;;10.80;1.57;;;;;;;;;;5040540;28;20611;-69
2022/01/20 07:38:29;;;;;;;12.93;1.53;;;;;;;;;;5045704;28;20198;-68
2022/01/20 07:40:55;;;;;;;17.83;2.03;;;;;;;;;;5045377;28;20177;-68
2022/01/20 07:43:20;;;;;;;9.93;1.33;;;;;;;;;;5046159;28;20227;-68
2022/01/20 07:45:46;;;;;;;7.77;1.33;;;;;;;;;;5039430;28;20225;-68
2022/01/20 07:48:11;;;;;;;14.13;2.07;;;;;;;;;;5042102;28;20280;-69
2022/01/20 07:50:37;;;;;;;9.77;1.80;;;;;;;;;;5043846;28;20254;-68
2022/01/20 07:53:03;;;;;;;9.43;1.63;;;;;;;;;;5042616;28;20189;-68
2022/01/20 07:55:28;;;;;;;12.13;1.63;;;;;;;;;;5045888;28;20272;-69
2022/01/20 07:57:54;;;;;;;22.30;2.50;;;;;;;;;;5046337;28;20188;-69
2022/01/20 08:00:19;;;;;;;9.80;1.37;;;;;;;;;;5044649;28;20661;-69
2022/01/20 08:02:45;;;;;;;8.50;1.50;;;;;;;;;;5044843;28;20259;-68
2022/01/20 08:05:11;;;;;;;10.10;1.73;;;;;;;;;;5046120;28;20190;-68
2022/01/20 08:07:37;;;;;;;14.13;1.70;;;;;;;;;;5043062;28;20218;-69
2022/01/20 08:10:03;;;;;;;11.97;2.10;;;;;;;;;;5047883;28;20570;-69
2022/01/20 08:12:29;;;;;;;9.73;1.10;;;;;;;;;;5045872;28;20260;-69
2022/01/20 08:14:55;;;;;;;14.97;1.80;;;;;;;;;;5048136;28;20540;-68
2022/01/20 08:17:21;;;;;;;16.30;1.47;;;;;;;;;;5044588;28;20604;-69
2022/01/20 08:19:47;;;;;;;7.57;1.43;;;;;;;;;;5048825;28;20193;-68
2022/01/20 08:22:13;;;;;;;9.73;1.80;;;;;;;;;;5045003;28;20264;-68
2022/01/20 08:24:40;;;;;;;10.33;1.40;;;;;;;;;;5045637;28;20299;-68
2022/01/20 08:27:06;;;;;;;12.33;2.10;;;;;;;;;;5041970;28;20300;-69
2022/01/20 08:29:31;;;;;;;14.03;1.53;;;;;;;;;;5047053;28;20761;-69
2022/01/20 08:31:57;;;;;;;9.40;1.37;;;;;;;;;;5044542;28;20633;-69
2022/01/20 08:34:22;;;;;;;7.03;1.43;;;;;;;;;;5048303;28;20185;-68
2022/01/20 08:36:49;;;;;;;10.07;1.60;;;;;;;;;;5046356;28;20197;-68
2022/01/20 08:41:59;;;;;;;7.83;1.47;;;;;;;;;;5043720;28;20221;-68
2022/01/20 08:44:25;;;;;;;7.63;1.23;;;;;;;;;;5042058;28;20615;-69
2022/01/20 08:46:52;;;;;;;16.33;1.40;;;;;;;;;;5045006;28;20284;-68
2022/01/20 08:49:18;;;;;;;9.70;1.70;;;;;;;;;;5044267;28;20621;-68
2022/01/20 08:51:43;;;;;;;13.40;1.67;;;;;;;;;;5046890;28;20196;-69
2022/01/20 08:54:08;;;;;;;9.73;1.47;;;;;;;;;;5045146;28;20178;-69
2022/01/20 08:56:34;;;;;;;10.23;1.20;;;;;;;;;;5046231;28;20194;-69
2022/01/20 08:59:01;;;;;;;12.63;1.83;;;;;;;;;;5039306;28;20189;-68
2022/01/20 09:01:27;;;;;;;11.53;1.23;;;;;;;;;;5042932;28;20193;-69
2022/01/20 09:03:52;;;;;;;8.83;1.40;;;;;;;;;;5040504;28;20202;-68
2022/01/20 09:06:17;;;;;;;9.37;1.50;;;;;;;;;;5045025;28;20185;-68
2022/01/20 09:08:43;;;;;;;7.87;1.30;;;;;;;;;;5045814;28;20274;-68
2022/01/20 09:11:18;;;;;;;12.47;1.80;;;;;;;;;;5040123;28;20253;-68
2022/01/20 09:16:28;;;;;;;13.80;1.33;;;;;;;;;;5045133;28;20243;-69
2022/01/20 09:18:54;;;;;;;12.90;1.87;;;;;;;;;;5045368;28;20221;-69
2022/01/20 09:21:22;;;;;;;13.57;1.77;;;;;;;;;;5042182;28;20189;-69
2022/01/20 09:23:48;;;;;;;14.70;2.30;;;;;;;;;;5043498;28;20209;-68
2022/01/20 09:26:13;;;;;;;9.30;1.83;;;;;;;;;;5042251;28;20231;-69
2022/01/20 09:28:39;;;;;;;9.67;1.40;;;;;;;;;;5042911;28;20614;-68
2022/01/20 09:31:06;;;;;;;14.87;2.87;;;;;;;;;;5043717;28;20294;-69
2022/01/20 09:33:31;;;;;;;11.07;1.53;;;;;;;;;;5046471;28;20189;-68
2022/01/20 09:35:58;;;;;;;21.43;2.27;;;;;;;;;;5045195;28;20243;-68
2022/01/20 09:38:25;;;;;;;11.50;1.90;;;;;;;;;;5045536;28;20192;-68
2022/01/20 09:40:51;;;;;;;14.67;1.80;;;;;;;;;;5045968;28;20237;-69
2022/01/20 09:43:17;;;;;;;10.93;1.67;;;;;;;;;;5040578;28;20281;-69
2022/01/20 09:45:48;;;;;;;15.30;2.00;;;;;;;;;;5046425;28;21299;-69
2022/01/20 09:48:15;;;;;;;17.00;1.93;;;;;;;;;;5040532;28;20668;-68
2022/01/20 09:50:40;;;;;;;16.17;2.20;;;;;;;;;;5046136;28;20189;-68
2022/01/20 09:53:06;;;;;;;15.30;2.47;;;;;;;;;;5041810;28;20188;-68
2022/01/20 09:55:32;;;;;;;13.93;2.37;;;;;;;;;;5042979;28;20569;-68
2022/01/20 09:57:58;;;;;;;13.27;1.90;;;;;;;;;;5043650;28;20185;-68
2022/01/20 10:00:24;;;;;;;13.10;2.27;;;;;;;;;;5044901;28;20212;-68
2022/01/20 10:03:12;;;;;;;20.87;2.10;;;;;;;;;;5043933;28;20220;-68
2022/01/20 10:05:47;;;;;;;18.57;2.30;;;;;;;;;;5044159;28;20186;-68
2022/01/20 10:08:21;;;;;;;12.23;2.17;;;;;;;;;;5036393;28;20321;-68
2022/01/20 10:11:01;;;;;;;8.00;1.93;;;;;;;;;;5041401;28;20208;-69
2022/01/20 10:13:32;;;;;;;13.93;2.30;;;;;;;;;;5042615;28;20197;-68
2022/01/20 10:16:17;;;;;;;17.67;2.60;;;;;;;;;;5044989;28;20200;-68
2022/01/20 10:18:53;;;;;;;13.53;2.43;;;;;;;;;;5048946;28;20197;-67
2022/01/20 10:21:33;;;;;;;15.70;2.30;;;;;;;;;;5045393;28;20189;-68
2022/01/20 10:24:12;;;;;;;12.77;1.87;;;;;;;;;;5046704;28;20357;-68
2022/01/20 10:26:39;;;;;;;14.07;2.17;;;;;;;;;;5046694;28;20258;-68
2022/01/20 10:29:09;;;;;;;14.87;2.03;;;;;;;;;;5046081;28;21176;-68
2022/01/20 10:31:39;;;;;;;11.63;1.70;;;;;;;;;;5040399;28;20211;-69
2022/01/20 10:34:17;;;;;;;11.47;2.13;;;;;;;;;;5044723;28;20201;-69
2022/01/20 10:36:50;;;;;;;13.50;2.17;;;;;;;;;;5044775;28;20212;-69
2022/01/20 10:39:16;;;;;;;13.40;1.47;;;;;;;;;;5041972;28;20173;-69
2022/01/20 10:41:41;;;;;;;15.67;1.90;;;;;;;;;;5045520;28;20604;-69
2022/01/20 10:44:15;;;;;;;13.57;2.40;;;;;;;;;;5044086;28;20211;-69
2022/01/20 10:46:46;;;;;;;14.93;2.13;;;;;;;;;;5041879;28;20181;-68
2022/01/20 10:49:12;;;;;;;11.70;1.70;;;;;;;;;;5044088;28;20173;-68
2022/01/20 10:51:37;;;;;;;10.60;2.17;;;;;;;;;;5042307;28;20201;-68
2022/01/20 10:54:07;;;;;;;13.53;2.30;;;;;;;;;;5045594;28;20178;-68
2022/01/20 10:56:55;;;;;;;8.17;1.67;;;;;;;;;;5044179;28;20256;-67
2022/01/20 10:59:22;;;;;;;7.40;1.40;;;;;;;;;;5046714;28;20242;-68
2022/01/20 11:02:07;;;;;;;12.57;1.83;;;;;;;;;;5046765;28;20617;-68
2022/01/20 11:04:34;;;;;;;10.77;1.77;;;;;;;;;;5044051;28;20201;-68
2022/01/20 11:07:03;;;;;;;10.17;1.70;;;;;;;;;;5044408;28;20196;-69
2022/01/20 11:09:32;;;;;;;21.93;1.70;;;;;;;;;;5041806;28;20212;-68
2022/01/20 11:11:59;;;;;;;11.60;2.10;;;;;;;;;;5039695;28;20177;-68
2022/01/20 11:14:24;;;;;;;13.63;2.10;;;;;;;;;;5042343;28;20236;-68
2022/01/20 11:16:50;;;;;;;14.87;1.70;;;;;;;;;;5042119;28;20193;-68
2022/01/20 11:19:21;;;;;;;9.57;2.00;;;;;;;;;;5043457;28;20177;-68
2022/01/20 11:21:49;;;;;;;11.03;2.00;;;;;;;;;;5045483;28;20196;-69
2022/01/20 11:24:25;;;;;;;11.60;1.90;;;;;;;;;;5043805;28;20548;-69
2022/01/20 11:26:56;;;;;;;9.47;2.00;;;;;;;;;;5040436;28;20681;-68
2022/01/20 11:29:23;;;;;;;9.13;1.50;;;;;;;;;;5043064;28;20233;-69
2022/01/20 11:31:50;;;;;;;13.20;2.50;;;;;;;;;;5042413;28;20501;-69
2022/01/20 11:34:17;;;;;;;14.37;2.10;;;;;;;;;;5045918;28;20547;-68
2022/01/20 11:36:44;;;;;;;10.47;1.93;;;;;;;;;;5043152;28;20218;-68
2022/01/20 11:39:09;;;;;;;16.97;2.40;;;;;;;;;;5041867;28;20211;-69
2022/01/20 11:41:39;;;;;;;11.83;2.70;;;;;;;;;;5042480;28;20235;-68
2022/01/20 11:44:20;;;;;;;11.23;1.40;;;;;;;;;;5045025;28;20295;-69
2022/01/20 11:46:49;;;;;;;14.27;1.63;;;;;;;;;;5041968;28;20192;-70
2022/01/20 11:49:17;;;;;;;12.90;1.97;;;;;;;;;;5046036;28;20872;-72
2022/01/20 11:51:47;;;;;;;16.07;2.07;;;;;;;;;;5041429;28;20186;-72
2022/01/20 11:54:25;;;;;;;15.30;1.67;;;;;;;;;;5039609;28;20183;-76
2022/01/20 11:56:50;;;;;;;15.70;1.73;;;;;;;;;;5038956;28;20327;-76
2022/01/20 11:59:16;;;;;;;13.00;1.77;;;;;;;;;;5041295;28;20185;-75
2022/01/20 12:01:43;;;;;;;18.70;2.40;;;;;;;;;;5041521;28;20196;-74
2022/01/20 12:04:09;;;;;;;10.97;1.27;;;;;;;;;;5043929;28;20252;-74
2022/01/20 12:06:44;;;;;;;9.37;1.80;;;;;;;;;;5038389;28;21141;-73
2022/01/20 12:09:09;;;;;;;14.03;1.77;;;;;;;;;;5043822;28;20236;-72
2022/01/20 12:11:46;;;;;;;20.10;1.80;;;;;;;;;;5039597;28;20666;-72
2022/01/20 12:14:13;;;;;;;9.37;1.37;;;;;;;;;;5043285;28;20755;-71
2022/01/20 12:16:42;;;;;;;13.70;1.97;;;;;;;;;;5043424;28;20189;-72
2022/01/20 12:19:10;;;;;;;7.50;1.13;;;;;;;;;;5045112;28;20707;-70
2022/01/20 12:21:37;;;;;;;10.03;1.00;;;;;;;;;;5043898;28;20525;-70
2022/01/20 12:24:03;;;;;;;9.17;1.80;;;;;;;;;;5045176;28;20537;-71
2022/01/20 12:26:36;;;;;;;8.07;1.10;;;;;;;;;;5038648;28;20324;-70
2022/01/20 12:29:06;;;;;;;5.87;1.53;;;;;;;;;;5046118;28;20251;-70
2022/01/20 12:31:43;;;;;;;10.00;1.30;;;;;;;;;;5044956;28;20212;-69
2022/01/20 12:34:11;;;;;;;12.40;1.77;;;;;;;;;;5042523;28;20628;-69
2022/01/20 12:36:39;;;;;;;10.60;1.57;;;;;;;;;;5045500;28;20176;-69
2022/01/20 12:39:05;;;;;;;7.83;1.67;;;;;;;;;;5047968;28;20260;-70
2022/01/20 12:41:31;;;;;;;10.20;1.23;;;;;;;;;;5046356;28;20509;-70
2022/01/20 12:44:06;;;;;;;9.20;1.40;;;;;;;;;;5045563;28;20197;-70
2022/01/20 12:46:37;;;;;;;14.70;2.03;;;;;;;;;;5041313;28;20189;-70
2022/01/20 12:49:09;;;;;;;10.90;1.40;;;;;;;;;;5044054;28;20174;-69
2022/01/20 12:51:49;;;;;;;14.50;1.67;;;;;;;;;;5045179;28;20264;-70
2022/01/20 12:54:27;;;;;;;12.90;2.23;;;;;;;;;;5045273;28;20196;-69
2022/01/20 12:56:58;;;;;;;10.83;1.63;;;;;;;;;;5042785;28;20189;-68
2022/01/20 12:59:26;;;;;;;11.47;2.03;;;;;;;;;;5039902;28;20197;-68
2022/01/20 13:01:54;;;;;;;12.80;1.97;;;;;;;;;;5044606;28;20509;-69
2022/01/20 13:04:27;;;;;;;12.73;1.53;;;;;;;;;;5040055;28;20213;-69
2022/01/20 13:06:56;;;;;;;11.57;1.67;;;;;;;;;;5035134;28;20185;-69
2022/01/20 13:09:25;;;;;;;10.33;1.70;;;;;;;;;;5041106;28;20209;-69
2022/01/20 13:11:57;;;;;;;11.00;1.97;;;;;;;;;;5044569;28;20216;-69
2022/01/20 13:14:41;;;;;;;16.97;2.00;;;;;;;;;;5043560;28;20259;-69
2022/01/20 13:17:09;;;;;;;10.63;1.70;;;;;;;;;;5042882;28;20181;-69
2022/01/20 13:19:44;;;;;;;16.00;2.07;;;;;;;;;;5040430;28;20217;-70
2022/01/20 13:22:31;;;;;;;12.13;1.70;;;;;;;;;;5043978;28;20193;-68
2022/01/20 13:25:11;;;;;;;11.20;1.53;;;;;;;;;;5043067;28;20286;-68
2022/01/20 13:27:38;;;;;;;13.07;1.97;;;;;;;;;;5039333;28;20204;-69
2022/01/20 13:30:04;;;;;;;8.37;1.33;;;;;;;;;;5041555;28;20205;-69
2022/01/20 13:32:30;;;;;;;13.37;1.70;;;;;;;;;;5038926;28;20194;-69
2022/01/20 13:35:00;;;;;;;8.33;1.70;;;;;;;;;;5041565;28;20173;-69
2022/01/20 13:37:27;;;;;;;10.80;2.37;;;;;;;;;;5045205;28;20208;-69
2022/01/20 13:39:56;;;;;;;12.73;1.43;;;;;;;;;;5041716;28;20723;-69
2022/01/20 13:45:14;;;;;;;11.47;1.87;;;;;;;;;;5040394;28;20308;-69
2022/01/20 13:47:55;;;;;;;13.10;1.60;;;;;;;;;;5041446;28;20621;-70
2022/01/20 13:50:28;;;;;;;15.17;1.50;;;;;;;;;;5046021;28;20181;-70
2022/01/20 13:52:54;;;;;;;12.83;2.10;;;;;;;;;;5041441;28;20192;-71
2022/01/20 13:55:29;;;;;;;15.60;1.70;;;;;;;;;;5046356;28;20710;-70
2022/01/20 13:57:56;;;;;;;12.13;1.40;;;;;;;;;;5040176;28;20633;-69
2022/01/20 14:00:24;;;;;;;7.97;1.30;;;;;;;;;;5042316;28;20243;-70
2022/01/20 14:02:50;;;;;;;10.70;1.33;;;;;;;;;;5042612;28;20185;-69
2022/01/20 14:05:21;;;;;;;17.83;2.07;;;;;;;;;;5043057;28;20185;-69
2022/01/20 14:07:47;;;;;;;14.17;1.53;;;;;;;;;;5039653;28;20229;-69
2022/01/20 14:10:13;;;;;;;10.90;1.70;;;;;;;;;;5040879;28;20197;-69
2022/01/20 14:12:39;;;;;;;13.67;1.73;;;;;;;;;;5043844;28;20277;-69
2022/01/20 14:15:05;;;;;;;12.57;2.00;;;;;;;;;;5046705;28;20621;-69
2022/01/20 14:17:35;;;;;;;12.23;1.60;;;;;;;;;;5044945;28;20508;-68
2022/01/20 14:20:06;;;;;;;12.20;1.40;;;;;;;;;;5046538;28;20268;-70
2022/01/20 14:22:31;;;;;;;13.83;1.60;;;;;;;;;;5046630;28;20276;-69
2022/01/20 14:24:57;;;;;;;9.07;1.40;;;;;;;;;;5043409;28;20336;-69
2022/01/20 14:27:22;;;;;;;12.13;2.00;;;;;;;;;;5044901;28;20197;-69
2022/01/20 14:29:47;;;;;;;16.50;2.10;;;;;;;;;;5040436;28;20185;-71
2022/01/20 14:32:14;;;;;;;18.47;2.37;;;;;;;;;;5043642;28;20177;-69
2022/01/20 14:34:40;;;;;;;12.43;1.90;;;;;;;;;;5039180;28;20185;-69
2022/01/20 14:37:09;;;;;;;16.80;2.33;;;;;;;;;;5045558;28;20549;-69
2022/01/20 14:39:35;;;;;;;21.07;2.37;;;;;;;;;;5040541;28;20177;-69
2022/01/20 14:42:06;;;;;;;16.63;2.40;;;;;;;;;;5045954;28;20201;-69
2022/01/20 14:44:31;;;;;;;12.03;1.97;;;;;;;;;;5041604;28;20205;-69
2022/01/20 14:46:57;;;;;;;14.03;2.20;;;;;;;;;;5042541;28;20198;-69
2022/01/20 14:49:22;;;;;;;14.57;2.17;;;;;;;;;;5039052;28;20628;-69
2022/01/20 14:51:48;;;;;;;15.77;2.53;;;;;;;;;;5043370;28;20243;-69
2022/01/20 14:54:17;;;;;;;13.93;2.10;;;;;;;;;;5045397;28;20181;-69
2022/01/20 14:56:43;;;;;;;13.53;2.30;;;;;;;;;;5044324;28;20192;-69
2022/01/20 14:59:09;;;;;;;12.33;1.80;;;;;;;;;;5044078;28;20531;-69
2022/01/20 15:01:35;;;;;;;9.93;2.00;;;;;;;;;;5041447;28;20204;-70
2022/01/20 15:04:00;;;;;;;13.00;2.13;;;;;;;;;;5045712;28;20204;-69
2022/01/20 15:06:25;;;;;;;9.87;1.90;;;;;;;;;;5044018;28;20613;-68
2022/01/20 15:08:51;;;;;;;14.97;2.60;;;;;;;;;;5043236;28;20217;-69
2022/01/20 15:11:16;;;;;;;11.37;2.23;;;;;;;;;;5040448;28;20236;-69
2022/01/20 15:13:41;;;;;;;6.27;1.63;;;;;;;;;;5038235;28;20222;-69
2022/01/20 15:16:07;;;;;;;13.37;1.60;;;;;;;;;;5040452;28;20192;-69
2022/01/20 15:18:33;;;;;;;15.07;1.70;;;;;;;;;;5042648;28;22126;-69
2022/01/20 15:20:58;;;;;;;13.43;1.90;;;;;;;;;;5042719;28;20248;-69
2022/01/20 15:23:24;;;;;;;7.17;1.50;;;;;;;;;;5042441;28;20571;-68
2022/01/20 15:25:50;;;;;;;8.30;1.43;;;;;;;;;;5044472;28;20194;-68
2022/01/20 15:28:15;;;;;;;7.97;1.77;;;;;;;;;;5044545;28;20212;-68
2022/01/20 15:30:41;;;;;;;8.10;1.40;;;;;;;;;;5042892;28;20633;-67
2022/01/20 15:33:08;;;;;;;10.33;1.10;;;;;;;;;;5044252;28;20196;-68
2022/01/20 15:35:33;;;;;;;9.70;1.27;;;;;;;;;;5038915;28;20275;-69
2022/01/20 15:37:59;;;;;;;8.07;1.40;;;;;;;;;;5036711;28;20229;-70